sensor_id;sensor_type;location;lat;lon;timestamp;pressure;altitude;pressure_sealevel;temperature
28803;BMP280;15949;55.656;37.422;2022-07-10T00:05:04;99005.66;;;16.04
28803;BMP280;15949;55.656;37.422;2022-07-10T00:10:09;99012.00;;;16.01
28803;BMP280;15949;55.656;37.422;2022-07-10T00:15:16;99001.50;;;16.03
28803;BMP280;15949;55.656;37.422;2022-07-10T00:20:22;98995.22;;;16.11
28803;BMP280;15949;55.656;37.422;2022-07-10T00:25:28;98980.38;;;16.16
28803;BMP280;15949;55.656;37.422;2022-07-10T00:30:34;98968.66;;;16.19
28803;BMP280;15949;55.656;37.422;2022-07-10T00:35:39;98980.69;;;16.24
28803;BMP280;15949;55.656;37.422;2022-07-10T00:40:45;98966.28;;;16.27
28803;BMP280;15949;55.656;37.422;2022-07-10T00:45:51;98982.63;;;16.23
28803;BMP280;15949;55.656;37.422;2022-07-10T00:50:57;98978.50;;;16.28
28803;BMP280;15949;55.656;37.422;2022-07-10T00:56:02;98958.69;;;16.20
28803;BMP280;15949;55.656;37.422;2022-07-10T01:01:08;98962.34;;;16.22
28803;BMP280;15949;55.656;37.422;2022-07-10T01:06:15;98972.81;;;16.20
28803;BMP280;15949;55.656;37.422;2022-07-10T01:11:21;98956.00;;;16.25
28803;BMP280;15949;55.656;37.422;2022-07-10T01:16:27;98945.69;;;16.18
28803;BMP280;15949;55.656;37.422;2022-07-10T01:21:34;98931.81;;;16.20
28803;BMP280;15949;55.656;37.422;2022-07-10T01:26:40;98969.09;;;16.12
28803;BMP280;15949;55.656;37.422;2022-07-10T01:31:48;98949.03;;;16.07
28803;BMP280;15949;55.656;37.422;2022-07-10T01:36:54;98940.22;;;16.01
28803;BMP280;15949;55.656;37.422;2022-07-10T01:41:59;98913.81;;;16.00
28803;BMP280;15949;55.656;37.422;2022-07-10T01:47:05;98917.72;;;15.99
28803;BMP280;15949;55.656;37.422;2022-07-10T01:52:11;98920.91;;;16.03
28803;BMP280;15949;55.656;37.422;2022-07-10T01:57:17;98907.25;;;16.01
28803;BMP280;15949;55.656;37.422;2022-07-10T02:02:23;98913.31;;;15.96
28803;BMP280;15949;55.656;37.422;2022-07-10T02:07:29;98920.31;;;15.87
28803;BMP280;15949;55.656;37.422;2022-07-10T02:12:34;98927.84;;;15.83
28803;BMP280;15949;55.656;37.422;2022-07-10T02:17:40;98933.94;;;15.78
28803;BMP280;15949;55.656;37.422;2022-07-10T02:22:46;98942.00;;;15.84
28803;BMP280;15949;55.656;37.422;2022-07-10T02:27:51;98944.56;;;15.99
28803;BMP280;15949;55.656;37.422;2022-07-10T02:32:57;98952.47;;;16.08
28803;BMP280;15949;55.656;37.422;2022-07-10T02:38:03;98952.06;;;16.21
28803;BMP280;15949;55.656;37.422;2022-07-10T02:43:08;98961.69;;;16.38
28803;BMP280;15949;55.656;37.422;2022-07-10T02:48:15;98954.72;;;16.58
28803;BMP280;15949;55.656;37.422;2022-07-10T02:53:21;98947.00;;;16.71
28803;BMP280;15949;55.656;37.422;2022-07-10T02:58:27;98951.44;;;16.85
28803;BMP280;15949;55.656;37.422;2022-07-10T03:03:32;98944.13;;;16.91
28803;BMP280;15949;55.656;37.422;2022-07-10T03:08:38;98946.34;;;16.99
28803;BMP280;15949;55.656;37.422;2022-07-10T03:13:44;98942.94;;;17.09
28803;BMP280;15949;55.656;37.422;2022-07-10T03:18:49;98941.50;;;17.14
28803;BMP280;15949;55.656;37.422;2022-07-10T03:23:55;98952.31;;;17.25
28803;BMP280;15949;55.656;37.422;2022-07-10T03:29:01;98953.03;;;17.31
28803;BMP280;15949;55.656;37.422;2022-07-10T03:34:07;98950.13;;;17.40
28803;BMP280;15949;55.656;37.422;2022-07-10T03:39:12;98957.72;;;17.48
28803;BMP280;15949;55.656;37.422;2022-07-10T03:44:18;98954.31;;;17.58
28803;BMP280;15949;55.656;37.422;2022-07-10T03:49:24;98947.94;;;17.67
28803;BMP280;15949;55.656;37.422;2022-07-10T03:54:30;98930.06;;;17.75
28803;BMP280;15949;55.656;37.422;2022-07-10T03:59:36;98907.53;;;17.78
28803;BMP280;15949;55.656;37.422;2022-07-10T04:04:42;98890.41;;;17.92
28803;BMP280;15949;55.656;37.422;2022-07-10T04:09:47;98878.09;;;18.14
28803;BMP280;15949;55.656;37.422;2022-07-10T04:14:53;98886.91;;;18.20
28803;BMP280;15949;55.656;37.422;2022-07-10T04:19:59;98883.91;;;18.29
28803;BMP280;15949;55.656;37.422;2022-07-10T04:25:05;98881.44;;;18.42
28803;BMP280;15949;55.656;37.422;2022-07-10T04:30:11;98893.66;;;18.43
28803;BMP280;15949;55.656;37.422;2022-07-10T04:35:17;98898.34;;;18.43
28803;BMP280;15949;55.656;37.422;2022-07-10T04:40:22;98893.94;;;18.40
28803;BMP280;15949;55.656;37.422;2022-07-10T04:45:28;98895.09;;;18.56
28803;BMP280;15949;55.656;37.422;2022-07-10T04:50:34;98891.06;;;18.74
28803;BMP280;15949;55.656;37.422;2022-07-10T04:55:40;98883.66;;;18.85
28803;BMP280;15949;55.656;37.422;2022-07-10T05:00:45;98882.63;;;18.88
28803;BMP280;15949;55.656;37.422;2022-07-10T05:05:51;98886.34;;;18.85
28803;BMP280;15949;55.656;37.422;2022-07-10T05:10:57;98885.50;;;19.02
28803;BMP280;15949;55.656;37.422;2022-07-10T05:16:03;98876.66;;;19.07
28803;BMP280;15949;55.656;37.422;2022-07-10T05:21:10;98869.25;;;19.13
28803;BMP280;15949;55.656;37.422;2022-07-10T05:26:16;98868.06;;;19.38
28803;BMP280;15949;55.656;37.422;2022-07-10T05:31:21;98870.91;;;19.52
28803;BMP280;15949;55.656;37.422;2022-07-10T05:36:27;98869.44;;;19.75
28803;BMP280;15949;55.656;37.422;2022-07-10T05:41:33;98874.75;;;20.30
28803;BMP280;15949;55.656;37.422;2022-07-10T05:46:38;98857.03;;;20.47
28803;BMP280;15949;55.656;37.422;2022-07-10T05:51:44;98855.69;;;20.73
28803;BMP280;15949;55.656;37.422;2022-07-10T05:56:50;98857.94;;;20.88
28803;BMP280;15949;55.656;37.422;2022-07-10T06:01:56;98875.38;;;21.06
28803;BMP280;15949;55.656;37.422;2022-07-10T06:07:02;98868.25;;;21.35
28803;BMP280;15949;55.656;37.422;2022-07-10T06:12:08;98869.81;;;21.43
28803;BMP280;15949;55.656;37.422;2022-07-10T06:17:14;98874.84;;;21.79
28803;BMP280;15949;55.656;37.422;2022-07-10T06:22:19;98877.53;;;21.92
28803;BMP280;15949;55.656;37.422;2022-07-10T06:27:38;98874.09;;;21.92
28803;BMP280;15949;55.656;37.422;2022-07-10T06:32:44;98861.91;;;21.85
28803;BMP280;15949;55.656;37.422;2022-07-10T06:37:50;98862.34;;;21.76
28803;BMP280;15949;55.656;37.422;2022-07-10T06:42:57;98869.00;;;21.88
28803;BMP280;15949;55.656;37.422;2022-07-10T06:48:03;98873.88;;;22.03
28803;BMP280;15949;55.656;37.422;2022-07-10T06:53:08;98893.19;;;22.13
28803;BMP280;15949;55.656;37.422;2022-07-10T06:58:14;98882.50;;;22.28
28803;BMP280;15949;55.656;37.422;2022-07-10T07:03:20;98892.81;;;22.63
28803;BMP280;15949;55.656;37.422;2022-07-10T07:08:29;98888.72;;;23.12
28803;BMP280;15949;55.656;37.422;2022-07-10T07:13:34;98893.72;;;23.29
28803;BMP280;15949;55.656;37.422;2022-07-10T07:18:40;98902.94;;;23.26
28803;BMP280;15949;55.656;37.422;2022-07-10T07:23:52;98897.94;;;22.88
28803;BMP280;15949;55.656;37.422;2022-07-10T07:28:58;98895.06;;;22.73
28803;BMP280;15949;55.656;37.422;2022-07-10T07:34:04;98894.28;;;22.65
28803;BMP280;15949;55.656;37.422;2022-07-10T07:39:09;98896.66;;;22.68
28803;BMP280;15949;55.656;37.422;2022-07-10T07:44:15;98890.91;;;22.72
28803;BMP280;15949;55.656;37.422;2022-07-10T07:49:23;98897.78;;;22.73
28803;BMP280;15949;55.656;37.422;2022-07-10T07:54:28;98891.44;;;22.91
28803;BMP280;15949;55.656;37.422;2022-07-10T07:59:34;98889.66;;;22.94
28803;BMP280;15949;55.656;37.422;2022-07-10T08:04:40;98892.16;;;23.12
28803;BMP280;15949;55.656;37.422;2022-07-10T08:09:45;98887.31;;;23.19
28803;BMP280;15949;55.656;37.422;2022-07-10T08:14:51;98894.13;;;23.33
28803;BMP280;15949;55.656;37.422;2022-07-10T08:19:57;98894.97;;;23.28
28803;BMP280;15949;55.656;37.422;2022-07-10T08:25:02;98895.19;;;23.30
28803;BMP280;15949;55.656;37.422;2022-07-10T08:30:09;98883.78;;;23.31
28803;BMP280;15949;55.656;37.422;2022-07-10T08:35:15;98879.69;;;23.46
28803;BMP280;15949;55.656;37.422;2022-07-10T08:40:21;98882.31;;;23.59
28803;BMP280;15949;55.656;37.422;2022-07-10T08:45:31;98882.03;;;23.70
28803;BMP280;15949;55.656;37.422;2022-07-10T08:50:44;98871.59;;;23.89
28803;BMP280;15949;55.656;37.422;2022-07-10T08:55:50;98869.97;;;23.94
28803;BMP280;15949;55.656;37.422;2022-07-10T09:00:56;98865.28;;;24.02
28803;BMP280;15949;55.656;37.422;2022-07-10T09:06:01;98850.47;;;24.18
28803;BMP280;15949;55.656;37.422;2022-07-10T09:11:15;98851.06;;;24.70
28803;BMP280;15949;55.656;37.422;2022-07-10T09:21:32;98854.47;;;26.05
28803;BMP280;15949;55.656;37.422;2022-07-10T09:26:40;98835.53;;;26.07
28803;BMP280;15949;55.656;37.422;2022-07-10T09:31:54;98824.19;;;26.18
28803;BMP280;15949;55.656;37.422;2022-07-10T09:42:32;98828.22;;;26.17
28803;BMP280;15949;55.656;37.422;2022-07-10T09:53:23;98812.09;;;26.71
28803;BMP280;15949;55.656;37.422;2022-07-10T09:58:32;98805.72;;;26.93
28803;BMP280;15949;55.656;37.422;2022-07-10T10:03:39;98801.03;;;27.48
28803;BMP280;15949;55.656;37.422;2022-07-10T10:08:48;98796.69;;;27.72
28803;BMP280;15949;55.656;37.422;2022-07-10T10:13:54;98796.78;;;28.01
28803;BMP280;15949;55.656;37.422;2022-07-10T10:19:01;98792.25;;;28.23
28803;BMP280;15949;55.656;37.422;2022-07-10T10:24:25;98807.94;;;28.22
28803;BMP280;15949;55.656;37.422;2022-07-10T10:29:31;98799.66;;;28.59
28803;BMP280;15949;55.656;37.422;2022-07-10T10:34:39;98784.50;;;28.87
28803;BMP280;15949;55.656;37.422;2022-07-10T10:39:54;98785.94;;;29.07
28803;BMP280;15949;55.656;37.422;2022-07-10T10:50:55;98804.41;;;28.97
28803;BMP280;15949;55.656;37.422;2022-07-10T11:06:42;98800.28;;;29.56
28803;BMP280;15949;55.656;37.422;2022-07-10T11:12:06;98803.31;;;29.81
28803;BMP280;15949;55.656;37.422;2022-07-10T11:17:13;98796.75;;;30.17
28803;BMP280;15949;55.656;37.422;2022-07-10T11:22:35;98797.72;;;30.43
28803;BMP280;15949;55.656;37.422;2022-07-10T11:33:04;98809.53;;;30.34
28803;BMP280;15949;55.656;37.422;2022-07-10T11:38:11;98806.91;;;30.58
28803;BMP280;15949;55.656;37.422;2022-07-10T11:43:16;98804.03;;;30.56
28803;BMP280;15949;55.656;37.422;2022-07-10T11:48:22;98800.00;;;30.68
28803;BMP280;15949;55.656;37.422;2022-07-10T11:53:28;98795.03;;;30.76
28803;BMP280;15949;55.656;37.422;2022-07-10T11:58:34;98799.47;;;30.93
28803;BMP280;15949;55.656;37.422;2022-07-10T12:03:39;98792.97;;;30.77
28803;BMP280;15949;55.656;37.422;2022-07-10T12:08:45;98785.88;;;30.62
28803;BMP280;15949;55.656;37.422;2022-07-10T12:13:52;98787.31;;;30.96
28803;BMP280;15949;55.656;37.422;2022-07-10T12:18:59;98779.78;;;30.97
28803;BMP280;15949;55.656;37.422;2022-07-10T12:24:05;98758.97;;;31.05
28803;BMP280;15949;55.656;37.422;2022-07-10T12:34:37;98749.41;;;31.18
28803;BMP280;15949;55.656;37.422;2022-07-10T12:39:49;98746.28;;;31.00
28803;BMP280;15949;55.656;37.422;2022-07-10T12:45:14;98737.56;;;31.04
28803;BMP280;15949;55.656;37.422;2022-07-10T12:50:20;98740.16;;;30.78
28803;BMP280;15949;55.656;37.422;2022-07-10T12:55:35;98743.06;;;29.83
28803;BMP280;15949;55.656;37.422;2022-07-10T13:00:44;98736.19;;;29.32
28803;BMP280;15949;55.656;37.422;2022-07-10T13:05:50;98733.34;;;28.70
28803;BMP280;15949;55.656;37.422;2022-07-10T13:10:57;98736.66;;;28.30
28803;BMP280;15949;55.656;37.422;2022-07-10T13:16:08;98718.19;;;28.59
28803;BMP280;15949;55.656;37.422;2022-07-10T13:21:14;98713.84;;;28.76
28803;BMP280;15949;55.656;37.422;2022-07-10T13:26:19;98714.38;;;28.93
28803;BMP280;15949;55.656;37.422;2022-07-10T13:31:25;98720.78;;;28.77
28803;BMP280;15949;55.656;37.422;2022-07-10T13:36:31;98726.84;;;28.27
28803;BMP280;15949;55.656;37.422;2022-07-10T13:41:37;98707.75;;;27.90
28803;BMP280;15949;55.656;37.422;2022-07-10T13:46:43;98700.72;;;27.50
28803;BMP280;15949;55.656;37.422;2022-07-10T13:51:48;98710.72;;;27.11
28803;BMP280;15949;55.656;37.422;2022-07-10T13:56:54;98721.16;;;26.78
28803;BMP280;15949;55.656;37.422;2022-07-10T14:02:00;98731.91;;;26.41
28803;BMP280;15949;55.656;37.422;2022-07-10T14:07:05;98747.09;;;26.10
28803;BMP280;15949;55.656;37.422;2022-07-10T14:12:11;98770.75;;;25.90
28803;BMP280;15949;55.656;37.422;2022-07-10T14:17:17;98783.03;;;25.66
28803;BMP280;15949;55.656;37.422;2022-07-10T14:22:22;98816.22;;;25.47
28803;BMP280;15949;55.656;37.422;2022-07-10T14:27:29;98972.88;;;24.77
28803;BMP280;15949;55.656;37.422;2022-07-10T14:32:37;99035.66;;;22.67
28803;BMP280;15949;55.656;37.422;2022-07-10T14:37:42;99038.78;;;20.70
28803;BMP280;15949;55.656;37.422;2022-07-10T14:42:48;99098.84;;;19.79
28803;BMP280;15949;55.656;37.422;2022-07-10T14:47:53;99117.38;;;19.11
28803;BMP280;15949;55.656;37.422;2022-07-10T14:53:01;99124.06;;;18.87
28803;BMP280;15949;55.656;37.422;2022-07-10T14:58:06;99081.88;;;18.73
28803;BMP280;15949;55.656;37.422;2022-07-10T15:03:12;99071.16;;;18.51
28803;BMP280;15949;55.656;37.422;2022-07-10T15:08:22;99008.66;;;18.47
28803;BMP280;15949;55.656;37.422;2022-07-10T15:13:28;98969.19;;;18.43
28803;BMP280;15949;55.656;37.422;2022-07-10T15:18:33;98971.16;;;18.37
28803;BMP280;15949;55.656;37.422;2022-07-10T15:23:39;98955.22;;;18.34
28803;BMP280;15949;55.656;37.422;2022-07-10T15:28:45;98954.28;;;18.31
28803;BMP280;15949;55.656;37.422;2022-07-10T15:33:50;98953.78;;;18.22
28803;BMP280;15949;55.656;37.422;2022-07-10T15:38:56;98974.56;;;18.32
28803;BMP280;15949;55.656;37.422;2022-07-10T15:44:01;98926.56;;;18.25
28803;BMP280;15949;55.656;37.422;2022-07-10T15:49:08;98936.81;;;18.43
28803;BMP280;15949;55.656;37.422;2022-07-10T15:54:16;98910.84;;;18.46
28803;BMP280;15949;55.656;37.422;2022-07-10T15:59:23;98921.63;;;18.46
28803;BMP280;15949;55.656;37.422;2022-07-10T16:04:29;98923.56;;;18.51
28803;BMP280;15949;55.656;37.422;2022-07-10T16:09:35;98899.06;;;18.43
28803;BMP280;15949;55.656;37.422;2022-07-10T16:14:40;98919.34;;;18.61
28803;BMP280;15949;55.656;37.422;2022-07-10T16:19:46;98930.09;;;18.67
28803;BMP280;15949;55.656;37.422;2022-07-10T16:24:52;98955.63;;;18.66
28803;BMP280;15949;55.656;37.422;2022-07-10T16:30:16;98963.00;;;18.60
28803;BMP280;15949;55.656;37.422;2022-07-10T16:35:21;99012.06;;;18.53
28803;BMP280;15949;55.656;37.422;2022-07-10T16:40:27;99029.47;;;18.40
28803;BMP280;15949;55.656;37.422;2022-07-10T16:45:33;99082.44;;;18.32
28803;BMP280;15949;55.656;37.422;2022-07-10T16:50:39;99005.00;;;18.16
28803;BMP280;15949;55.656;37.422;2022-07-10T16:55:45;98980.53;;;18.14
28803;BMP280;15949;55.656;37.422;2022-07-10T17:00:51;98982.22;;;18.23
28803;BMP280;15949;55.656;37.422;2022-07-10T17:05:56;98981.72;;;18.30
28803;BMP280;15949;55.656;37.422;2022-07-10T17:11:02;98974.88;;;18.23
28803;BMP280;15949;55.656;37.422;2022-07-10T17:16:07;98931.97;;;18.19
28803;BMP280;15949;55.656;37.422;2022-07-10T17:21:13;98884.91;;;18.15
28803;BMP280;15949;55.656;37.422;2022-07-10T17:26:24;98944.22;;;18.15
28803;BMP280;15949;55.656;37.422;2022-07-10T17:31:29;98959.19;;;18.16
28803;BMP280;15949;55.656;37.422;2022-07-10T17:36:35;98992.22;;;18.28
28803;BMP280;15949;55.656;37.422;2022-07-10T17:41:41;98973.84;;;18.37
28803;BMP280;15949;55.656;37.422;2022-07-10T17:46:47;98978.50;;;18.42
28803;BMP280;15949;55.656;37.422;2022-07-10T17:51:52;98977.50;;;18.46
28803;BMP280;15949;55.656;37.422;2022-07-10T17:56:58;98978.75;;;18.33
28803;BMP280;15949;55.656;37.422;2022-07-10T18:02:04;98984.41;;;18.35
28803;BMP280;15949;55.656;37.422;2022-07-10T18:07:11;98989.75;;;18.47
28803;BMP280;15949;55.656;37.422;2022-07-10T18:12:16;98993.16;;;18.64
28803;BMP280;15949;55.656;37.422;2022-07-10T18:17:22;98995.31;;;18.71
28803;BMP280;15949;55.656;37.422;2022-07-10T18:22:28;98997.53;;;18.67
28803;BMP280;15949;55.656;37.422;2022-07-10T18:27:33;98994.88;;;18.61
28803;BMP280;15949;55.656;37.422;2022-07-10T18:32:39;98989.00;;;18.57
28803;BMP280;15949;55.656;37.422;2022-07-10T18:38:03;98989.75;;;18.47
28803;BMP280;15949;55.656;37.422;2022-07-10T18:43:08;98988.75;;;18.50
28803;BMP280;15949;55.656;37.422;2022-07-10T18:48:14;98986.63;;;18.31
28803;BMP280;15949;55.656;37.422;2022-07-10T18:53:20;98980.44;;;18.36
28803;BMP280;15949;55.656;37.422;2022-07-10T18:58:25;98980.44;;;18.36
28803;BMP280;15949;55.656;37.422;2022-07-10T19:03:31;98988.34;;;18.23
28803;BMP280;15949;55.656;37.422;2022-07-10T19:08:37;98989.53;;;18.28
28803;BMP280;15949;55.656;37.422;2022-07-10T19:13:42;98982.44;;;18.25
28803;BMP280;15949;55.656;37.422;2022-07-10T19:18:48;98976.56;;;18.15
28803;BMP280;15949;55.656;37.422;2022-07-10T19:23:54;98971.94;;;18.27
28803;BMP280;15949;55.656;37.422;2022-07-10T19:28:59;98971.16;;;18.26
28803;BMP280;15949;55.656;37.422;2022-07-10T19:34:06;98976.81;;;18.17
28803;BMP280;15949;55.656;37.422;2022-07-10T19:39:11;98967.78;;;17.98
28803;BMP280;15949;55.656;37.422;2022-07-10T19:44:17;99028.28;;;17.85
28803;BMP280;15949;55.656;37.422;2022-07-10T19:49:23;99046.91;;;17.83
28803;BMP280;15949;55.656;37.422;2022-07-10T19:54:30;99066.72;;;17.80
28803;BMP280;15949;55.656;37.422;2022-07-10T19:59:35;99058.59;;;17.69
28803;BMP280;15949;55.656;37.422;2022-07-10T20:04:41;99045.38;;;17.65
28803;BMP280;15949;55.656;37.422;2022-07-10T20:09:47;99046.63;;;17.64
28803;BMP280;15949;55.656;37.422;2022-07-10T20:14:52;99041.94;;;17.59
28803;BMP280;15949;55.656;37.422;2022-07-10T20:19:58;99049.53;;;17.50
28803;BMP280;15949;55.656;37.422;2022-07-10T20:25:04;99043.13;;;17.41
28803;BMP280;15949;55.656;37.422;2022-07-10T20:30:10;99042.88;;;17.34
28803;BMP280;15949;55.656;37.422;2022-07-10T20:35:16;99039.44;;;17.33
28803;BMP280;15949;55.656;37.422;2022-07-10T20:40:22;99031.34;;;17.33
28803;BMP280;15949;55.656;37.422;2022-07-10T20:45:28;99026.97;;;17.30
28803;BMP280;15949;55.656;37.422;2022-07-10T20:50:34;99027.69;;;17.36
28803;BMP280;15949;55.656;37.422;2022-07-10T20:55:40;99011.56;;;17.42
28803;BMP280;15949;55.656;37.422;2022-07-10T21:00:45;98978.75;;;17.43
28803;BMP280;15949;55.656;37.422;2022-07-10T21:05:51;98969.25;;;17.42
28803;BMP280;15949;55.656;37.422;2022-07-10T21:10:56;98960.41;;;17.48
28803;BMP280;15949;55.656;37.422;2022-07-10T21:16:02;98952.09;;;17.46
28803;BMP280;15949;55.656;37.422;2022-07-10T21:21:08;98966.78;;;17.45
28803;BMP280;15949;55.656;37.422;2022-07-10T21:26:14;98965.06;;;17.41
28803;BMP280;15949;55.656;37.422;2022-07-10T21:31:20;98973.13;;;17.41
28803;BMP280;15949;55.656;37.422;2022-07-10T21:36:25;98984.63;;;17.48
28803;BMP280;15949;55.656;37.422;2022-07-10T21:41:31;98971.69;;;17.52
28803;BMP280;15949;55.656;37.422;2022-07-10T21:46:37;98986.34;;;17.51
28803;BMP280;15949;55.656;37.422;2022-07-10T21:51:42;98978.53;;;17.53
28803;BMP280;15949;55.656;37.422;2022-07-10T21:56:48;98963.34;;;17.50
28803;BMP280;15949;55.656;37.422;2022-07-10T22:01:53;98962.63;;;17.49
28803;BMP280;15949;55.656;37.422;2022-07-10T22:06:59;98964.09;;;17.50
28803;BMP280;15949;55.656;37.422;2022-07-10T22:12:05;98973.88;;;17.53
28803;BMP280;15949;55.656;37.422;2022-07-10T22:17:11;98980.97;;;17.51
28803;BMP280;15949;55.656;37.422;2022-07-10T22:22:16;98979.00;;;17.57
28803;BMP280;15949;55.656;37.422;2022-07-10T22:27:22;98982.47;;;17.52
28803;BMP280;15949;55.656;37.422;2022-07-10T22:32:27;98966.31;;;17.52
28803;BMP280;15949;55.656;37.422;2022-07-10T22:37:33;98958.22;;;17.52
28803;BMP280;15949;55.656;37.422;2022-07-10T22:42:39;98967.25;;;17.49
28803;BMP280;15949;55.656;37.422;2022-07-10T22:47:44;98964.34;;;17.47
28803;BMP280;15949;55.656;37.422;2022-07-10T22:52:50;98960.66;;;17.50
28803;BMP280;15949;55.656;37.422;2022-07-10T22:57:55;98954.06;;;17.51
28803;BMP280;15949;55.656;37.422;2022-07-10T23:03:01;98948.91;;;17.53
28803;BMP280;15949;55.656;37.422;2022-07-10T23:08:07;98960.44;;;17.53
28803;BMP280;15949;55.656;37.422;2022-07-10T23:13:13;98969.25;;;17.54
28803;BMP280;15949;55.656;37.422;2022-07-10T23:18:19;98978.53;;;17.53
28803;BMP280;15949;55.656;37.422;2022-07-10T23:23:24;98972.41;;;17.52
28803;BMP280;15949;55.656;37.422;2022-07-10T23:28:30;98977.06;;;17.46
28803;BMP280;15949;55.656;37.422;2022-07-10T23:33:36;98976.06;;;17.43
28803;BMP280;15949;55.656;37.422;2022-07-10T23:38:41;98984.41;;;17.46
28803;BMP280;15949;55.656;37.422;2022-07-10T23:43:47;98992.72;;;17.48
28803;BMP280;15949;55.656;37.422;2022-07-10T23:48:52;98986.81;;;17.43
28803;BMP280;15949;55.656;37.422;2022-07-10T23:54:16;99005.69;;;17.38
28803;BMP280;15949;55.656;37.422;2022-07-10T23:59:22;98997.38;;;17.47
